Archival Weather

NSFA McMurdo Sound

NSFA McMurdo Sound, Antarctica (NZCM)

Report from: Saturday, February 24, 2024 2:55 AM UTC
Current time: Wednesday, April 24, 2024 7:56 PM UTC

Current weather – Weather history – Daily summaries
Weather forecast

Temperature-14.6°C (5.7°F)
Wind chill-24.1°C (-11.4°F)
Dew point-30.5°C (-22.9°F)
Winds 12 kts (6.2 m/s, 13.8 mph) Northeast (40°)
Visibility6.2 mi. (10 km)
Clouds Sky clear
Altimeter29.25 in.Hg (991 mB)
Relative humidity24 %
Density altitude-2,950 ft. (-899 m)
Sea-level pressure99.1 kPa (991 mB, 29.26 in.Hg)
Remarks Fully automated report
Automated weather observing station with precipitation discriminator
Pressure falling more quickly
Flight conditions Visual Meteorological Conditions
Raw dataNZCM 240255Z AUTO 04012KT 9999 CLR M15/M30 A2925 RMK AO2 SLP910 T11461305 58006
An error has occurred. This application may no longer respond until reloaded. Reload 🗙